Time;durP1;ratioP1;P1;durP2;ratioP2;P2;SDS_P1;SDS_P2;PMS_P1;PMS_P2;Temp;Humidity;BMP_temperature;BMP_pressure;BME280_temperature;BME280_humidity;BME280_pressure;Samples;Min_cycle;Max_cycle;Signal;HPM_P1;HPM_P2
2022/06/09 00:00:13;;;;;;;3.65;3.30;;;17.20;99.90;;;;;;4940247;29;20027;-78
2022/06/09 00:02:43;;;;;;;4.97;2.90;;;17.20;99.90;;;;;;4957649;29;20034;-78
2022/06/09 00:05:10;;;;;;;6.30;3.35;;;17.20;99.90;;;;;;4940332;29;20039;-78
2022/06/09 00:07:36;;;;;;;4.72;2.90;;;17.20;99.90;;;;;;4957344;29;20034;-78
2022/06/09 00:10:08;;;;;;;4.20;2.88;;;17.20;99.90;;;;;;4957229;29;20486;-78
2022/06/09 00:12:35;;;;;;;3.53;2.90;;;17.20;99.90;;;;;;4939925;29;20394;-78
2022/06/09 00:15:04;;;;;;;3.95;2.90;;;17.20;99.90;;;;;;4957311;29;20090;-78
2022/06/09 00:17:30;;;;;;;3.15;2.90;;;17.20;99.90;;;;;;4956800;29;20114;-78
2022/06/09 00:19:55;;;;;;;3.85;3.13;;;17.20;99.90;;;;;;4957163;29;20094;-79
2022/06/09 00:22:21;;;;;;;5.45;3.70;;;17.20;99.90;;;;;;4957266;29;20031;-78
2022/06/09 00:24:46;;;;;;;5.57;3.00;;;17.20;99.90;;;;;;4939487;29;20455;-78
2022/06/09 00:27:12;;;;;;;3.20;2.90;;;17.10;99.90;;;;;;4957169;29;20036;-78
2022/06/09 00:29:38;;;;;;;3.75;3.00;;;17.10;99.90;;;;;;4939675;29;20089;-78
2022/06/09 00:32:04;;;;;;;4.25;2.80;;;17.10;99.90;;;;;;4956762;29;20041;-79
2022/06/09 00:34:29;;;;;;;3.65;3.15;;;17.10;99.90;;;;;;4956900;29;20122;-79
2022/06/09 00:36:55;;;;;;;2.92;2.58;;;17.10;99.90;;;;;;4956991;29;20378;-79
2022/06/09 00:39:21;;;;;;;3.15;2.88;;;17.10;99.90;;;;;;4956457;29;20055;-79
2022/06/09 00:41:46;;;;;;;3.75;3.20;;;17.10;99.90;;;;;;4956629;29;20460;-79
2022/06/09 00:44:21;;;;;;;4.53;2.67;;;17.10;99.90;;;;;;4956617;29;20043;-79
2022/06/09 00:46:59;;;;;;;3.63;3.20;;;17.20;99.90;;;;;;4956800;29;20023;-79
2022/06/09 00:49:35;;;;;;;3.72;3.20;;;17.10;99.90;;;;;;4956368;28;20432;-79
2022/06/09 00:52:04;;;;;;;5.43;3.47;;;17.10;99.90;;;;;;4939388;29;20058;-79
2022/06/09 00:54:43;;;;;;;3.78;3.47;;;17.20;99.90;;;;;;4956370;29;20046;-79
2022/06/09 00:57:20;;;;;;;4.75;3.17;;;17.20;99.90;;;;;;4939224;29;20038;-78
2022/06/09 00:59:51;;;;;;;5.72;2.97;;;17.20;99.90;;;;;;4956847;29;20031;-79
2022/06/09 01:02:19;;;;;;;3.50;3.20;;;17.20;99.90;;;;;;4939454;29;20059;-79
2022/06/09 01:04:48;;;;;;;3.17;2.90;;;17.20;99.90;;;;;;4956318;29;20467;-78
2022/06/09 01:07:26;;;;;;;3.53;3.22;;;17.20;99.90;;;;;;4956243;29;20046;-78
2022/06/09 01:09:52;;;;;;;4.35;3.35;;;17.20;99.90;;;;;;4939029;29;20031;-78
2022/06/09 01:12:35;;;;;;;3.60;3.33;;;17.20;99.90;;;;;;4938894;29;20030;-78
2022/06/09 01:15:13;;;;;;;3.97;3.63;;;17.20;99.90;;;;;;4956068;29;20487;-78
2022/06/09 01:17:51;;;;;;;6.72;3.75;;;17.20;99.90;;;;;;4956549;29;20019;-78
2022/06/09 01:20:46;;;;;;;3.88;3.45;;;17.20;99.90;;;;;;4956032;29;20039;-78
2022/06/09 01:23:36;;;;;;;7.30;3.70;;;17.20;99.90;;;;;;4956154;29;20027;-78
2022/06/09 01:26:14;;;;;;;4.85;3.72;;;17.20;99.90;;;;;;4955461;29;20047;-78
2022/06/09 01:29:13;;;;;;;10.07;4.55;;;17.20;99.90;;;;;;4955366;29;20039;-78
2022/06/09 01:31:46;;;;;;;10.57;3.80;;;17.10;99.90;;;;;;4955282;29;20098;-78
2022/06/09 01:34:17;;;;;;;4.00;3.05;;;17.10;99.90;;;;;;4955404;29;20039;-78
2022/06/09 01:37:09;;;;;;;4.30;3.00;;;17.10;99.90;;;;;;4955415;29;20024;-78
2022/06/09 01:39:54;;;;;;;6.25;3.75;;;17.10;99.90;;;;;;4946703;29;20102;-78
2022/06/09 01:42:55;;;;;;;4.72;3.17;;;17.00;99.90;;;;;;4954572;29;20039;-77
2022/06/09 01:45:36;;;;;;;5.88;3.72;;;17.00;99.90;;;;;;4912443;29;20058;-78
2022/06/09 01:48:09;;;;;;;5.57;3.13;;;16.90;99.90;;;;;;4937805;29;20170;-77
2022/06/09 01:50:43;;;;;;;3.03;2.75;;;16.80;99.90;;;;;;4955015;29;20031;-77
2022/06/09 01:53:14;;;;;;;3.03;2.10;;;16.70;99.90;;;;;;4937686;29;20034;-78
2022/06/09 01:55:49;;;;;;;7.10;2.45;;;16.60;99.90;;;;;;4937700;29;20036;-77
2022/06/09 01:58:19;;;;;;;7.95;2.40;;;16.60;99.90;;;;;;4954587;29;20028;-77
2022/06/09 02:00:45;;;;;;;3.92;1.85;;;16.50;99.90;;;;;;4955072;28;20107;-77
2022/06/09 02:03:20;;;;;;;6.78;1.50;;;16.40;99.90;;;;;;4940650;29;20027;-77
2022/06/09 02:05:50;;;;;;;1.80;1.50;;;16.30;99.90;;;;;;4941109;29;20023;-77
2022/06/09 02:08:19;;;;;;;3.17;1.45;;;16.30;99.90;;;;;;4958446;29;20478;-77
2022/06/09 02:10:51;;;;;;;1.60;1.25;;;16.30;99.90;;;;;;4958129;29;20051;-77
2022/06/09 02:13:25;;;;;;;2.40;1.20;;;16.20;99.90;;;;;;4941264;29;20036;-78
2022/06/09 02:15:54;;;;;;;2.15;0.80;;;16.20;99.90;;;;;;4958297;29;20023;-78
2022/06/09 02:18:25;;;;;;;1.70;1.05;;;16.20;99.90;;;;;;4957719;29;20110;-78
2022/06/09 02:21:03;;;;;;;1.75;0.80;;;16.20;99.90;;;;;;4957939;29;20032;-78
2022/06/09 02:23:29;;;;;;;5.10;0.95;;;16.10;99.90;;;;;;4941136;29;20110;-79
2022/06/09 02:25:54;;;;;;;1.47;0.90;;;16.10;99.90;;;;;;4900311;29;1114784;-77
2022/06/09 02:28:20;;;;;;;1.55;0.60;;;16.20;99.90;;;;;;4939848;29;20256;-78
2022/06/09 02:30:46;;;;;;;1.52;0.60;;;16.20;99.90;;;;;;4922785;29;20024;-78
2022/06/09 02:33:12;;;;;;;1.95;0.90;;;16.10;99.90;;;;;;4939826;29;20020;-78
2022/06/09 02:35:39;;;;;;;1.95;0.75;;;16.10;99.90;;;;;;4922434;29;20028;-79
2022/06/09 02:38:05;;;;;;;1.02;0.52;;;16.10;99.90;;;;;;4922699;29;20480;-78
2022/06/09 02:40:31;;;;;;;0.50;0.50;;;16.10;99.90;;;;;;4939348;29;20107;-79
2022/06/09 02:42:57;;;;;;;1.33;0.70;;;16.10;99.90;;;;;;4922768;29;20075;-79
2022/06/09 02:45:23;;;;;;;4.78;0.50;;;16.10;99.90;;;;;;4939303;29;20395;-79
2022/06/09 02:47:49;;;;;;;1.02;0.73;;;16.10;99.90;;;;;;4922425;29;20485;-79
2022/06/09 02:50:18;;;;;;;1.85;0.60;;;16.10;99.90;;;;;;4939519;29;20115;-79
2022/06/09 02:52:44;;;;;;;1.50;0.40;;;16.10;99.90;;;;;;4938430;29;20037;-79
2022/06/09 02:55:11;;;;;;;0.38;0.38;;;16.10;99.90;;;;;;4939328;29;20480;-79
2022/06/09 02:57:37;;;;;;;2.33;0.50;;;16.10;99.90;;;;;;4922250;29;20027;-79
2022/06/09 03:00:06;;;;;;;0.50;0.35;;;16.10;99.90;;;;;;4939484;29;20028;-79
2022/06/09 03:02:32;;;;;;;0.45;0.45;;;16.10;99.90;;;;;;4939276;29;20027;-78
2022/06/09 03:04:58;;;;;;;6.05;1.83;;;16.00;99.90;;;;;;4922069;29;20092;-78
2022/06/09 03:07:24;;;;;;;0.85;0.40;;;16.00;99.90;;;;;;4939207;29;20028;-78
2022/06/09 03:09:51;;;;;;;0.95;0.20;;;16.00;99.90;;;;;;4921953;29;20491;-78
2022/06/09 03:12:17;;;;;;;0.40;0.40;;;16.00;99.90;;;;;;4938594;29;20115;-79
2022/06/09 03:14:43;;;;;;;1.52;0.50;;;16.00;99.90;;;;;;4921964;29;20399;-78
2022/06/09 03:17:09;;;;;;;2.45;0.30;;;16.00;99.90;;;;;;4922282;29;20487;-79
2022/06/09 03:19:36;;;;;;;2.25;0.40;;;16.00;99.90;;;;;;4922122;29;20055;-79
2022/06/09 03:22:02;;;;;;;0.60;0.60;;;16.00;99.90;;;;;;4922388;29;20028;-79
2022/06/09 03:24:27;;;;;;;0.75;0.38;;;16.00;99.90;;;;;;4938580;29;20051;-79
2022/06/09 03:26:53;;;;;;;0.45;0.40;;;16.00;99.90;;;;;;4921847;29;20043;-79
2022/06/09 03:29:20;;;;;;;2.65;0.30;;;15.90;99.90;;;;;;4938686;29;20028;-79
2022/06/09 03:31:46;;;;;;;0.73;0.20;;;15.90;99.90;;;;;;4938713;29;20414;-79
2022/06/09 03:34:12;;;;;;;0.47;0.20;;;15.90;99.90;;;;;;4938611;29;20086;-78
2022/06/09 03:36:38;;;;;;;0.82;0.40;;;15.90;99.90;;;;;;4938388;29;20032;-78
2022/06/09 03:39:04;;;;;;;5.47;0.40;;;15.80;99.90;;;;;;4921397;29;20464;-78
2022/06/09 03:41:29;;;;;;;3.17;0.50;;;15.70;99.90;;;;;;4921513;29;20028;-79
2022/06/09 03:43:55;;;;;;;3.63;0.50;;;15.70;99.90;;;;;;4921469;29;20038;-78
2022/06/09 03:46:20;;;;;;;0.73;0.52;;;15.70;99.90;;;;;;4938443;29;20031;-78
2022/06/09 03:48:46;;;;;;;0.93;0.40;;;15.60;99.90;;;;;;4938422;29;20032;-78
2022/06/09 03:51:12;;;;;;;0.95;0.30;;;15.60;99.90;;;;;;4938603;29;20067;-77
2022/06/09 03:53:39;;;;;;;1.98;0.28;;;15.60;99.90;;;;;;4921284;29;20040;-77
2022/06/09 03:56:11;;;;;;;0.98;0.35;;;15.50;99.90;;;;;;4938334;29;20066;-77
2022/06/09 03:58:37;;;;;;;1.27;0.63;;;15.50;99.90;;;;;;4938651;29;20118;-77
2022/06/09 04:01:02;;;;;;;0.63;0.47;;;15.40;99.90;;;;;;4936879;29;20118;-77
2022/06/09 04:03:29;;;;;;;2.05;0.45;;;15.30;99.90;;;;;;4938178;29;20032;-77
2022/06/09 04:05:56;;;;;;;0.73;0.50;;;15.30;99.90;;;;;;4938057;29;20111;-76
2022/06/09 04:08:22;;;;;;;0.60;0.60;;;15.30;99.90;;;;;;4938220;29;20032;-76
2022/06/09 04:10:48;;;;;;;3.20;0.55;;;15.20;99.90;;;;;;4938068;29;20162;-76
2022/06/09 04:13:15;;;;;;;1.90;0.50;;;15.20;99.90;;;;;;4938001;29;20543;-75
2022/06/09 04:15:42;;;;;;;1.80;0.38;;;15.10;99.90;;;;;;4937918;29;20090;-76
2022/06/09 04:18:09;;;;;;;0.68;0.65;;;15.00;99.90;;;;;;4937918;29;20035;-76
2022/06/09 04:20:35;;;;;;;2.67;0.60;;;15.00;99.90;;;;;;4938020;29;20032;-76
2022/06/09 04:23:01;;;;;;;1.27;0.45;;;15.00;99.90;;;;;;4938059;29;20031;-78
2022/06/09 04:25:27;;;;;;;4.53;0.75;;;14.90;99.90;;;;;;4925811;29;20135;-60
2022/06/09 04:27:53;;;;;;;3.85;1.00;;;15.00;99.90;;;;;;4918733;29;20032;-60
2022/06/09 04:30:20;;;;;;;2.58;0.60;;;15.00;99.90;;;;;;4918468;29;20121;-76
2022/06/09 04:32:46;;;;;;;1.45;0.57;;;15.10;99.90;;;;;;4902139;29;20032;-76
2022/06/09 04:35:13;;;;;;;0.90;0.70;;;15.00;99.90;;;;;;4918571;29;20032;-76
2022/06/09 04:37:59;;;;;;;1.10;0.60;;;14.90;99.90;;;;;;4901544;29;20036;-75
2022/06/09 04:40:26;;;;;;;1.55;1.33;;;14.90;99.90;;;;;;4918547;29;20028;-77
2022/06/09 04:42:52;;;;;;;2.30;0.80;;;14.90;99.90;;;;;;4918426;29;20111;-76
2022/06/09 04:45:18;;;;;;;1.05;0.60;;;14.90;99.90;;;;;;4918535;29;20064;-77
2022/06/09 04:47:44;;;;;;;2.80;0.80;;;14.90;99.90;;;;;;4901366;29;20111;-76
2022/06/09 04:50:11;;;;;;;2.50;1.00;;;14.90;99.90;;;;;;4918897;29;20198;-88
2022/06/09 04:52:37;;;;;;;3.38;0.73;;;14.90;99.90;;;;;;4919199;29;20034;-83
2022/06/09 04:55:04;;;;;;;1.15;0.82;;;14.90;99.90;;;;;;4919153;29;20040;-84
2022/06/09 04:57:29;;;;;;;2.97;0.90;;;14.80;99.90;;;;;;4902531;29;20064;-90
2022/06/09 04:59:55;;;;;;;1.38;0.85;;;14.80;99.90;;;;;;4918999;29;20059;-86
2022/06/09 05:02:21;;;;;;;4.28;0.90;;;14.80;99.90;;;;;;4923576;29;20032;-82
2022/06/09 05:04:46;;;;;;;0.80;0.80;;;14.80;99.90;;;;;;4904530;29;20040;-85
2022/06/09 05:07:12;;;;;;;1.88;1.00;;;14.80;99.90;;;;;;4904515;29;20024;-84
2022/06/09 05:09:37;;;;;;;1.60;1.20;;;14.70;99.90;;;;;;4902806;29;20479;-84
2022/06/09 05:12:04;;;;;;;2.60;1.10;;;14.60;99.90;;;;;;4918774;29;20035;-76
2022/06/09 05:14:30;;;;;;;2.83;1.00;;;14.60;99.90;;;;;;4917820;29;20103;-81
2022/06/09 05:16:56;;;;;;;1.80;1.10;;;14.60;99.90;;;;;;4901287;29;20123;-80
2022/06/09 05:19:21;;;;;;;1.40;0.93;;;14.60;99.90;;;;;;4918088;29;20099;-81
2022/06/09 05:21:47;;;;;;;5.25;1.38;;;14.60;99.90;;;;;;4917976;29;20028;-82
2022/06/09 05:24:13;;;;;;;4.68;0.95;;;14.60;99.90;;;;;;4900792;29;20032;-82
2022/06/09 05:26:38;;;;;;;1.15;0.90;;;14.60;99.90;;;;;;4917990;29;20055;-83
2022/06/09 05:29:04;;;;;;;2.08;1.27;;;14.70;99.90;;;;;;4900938;29;20064;-85
2022/06/09 05:31:30;;;;;;;3.05;1.15;;;14.70;99.90;;;;;;4918288;29;20059;-83
2022/06/09 05:33:56;;;;;;;2.60;1.10;;;14.70;99.90;;;;;;4918031;29;20072;-83
2022/06/09 05:36:21;;;;;;;2.45;0.85;;;14.70;99.90;;;;;;4918182;29;20478;-82
2022/06/09 05:46:59;;;;;;;2.47;1.70;;;14.70;99.90;;;;;;4917755;29;20107;-81
2022/06/09 05:49:25;;;;;;;1.33;1.20;;;14.70;99.90;;;;;;4917729;29;20452;-83
2022/06/09 05:51:52;;;;;;;3.80;1.85;;;14.60;99.90;;;;;;4901194;29;20035;-83
2022/06/09 05:54:18;;;;;;;1.88;1.10;;;14.50;99.90;;;;;;4901133;29;20040;-81
2022/06/09 05:56:44;;;;;;;2.63;1.30;;;14.50;99.90;;;;;;4901242;29;20121;-81
2022/06/09 05:59:10;;;;;;;2.15;1.30;;;14.50;99.90;;;;;;4917652;29;20033;-61
2022/06/09 06:01:35;;;;;;;1.52;1.42;;;14.50;99.90;;;;;;4917333;29;20024;-61
2022/06/09 06:04:04;;;;;;;1.98;1.00;;;14.60;99.90;;;;;;4917608;29;20028;-62
2022/06/09 06:06:35;;;;;;;3.70;1.40;;;14.70;99.90;;;;;;4917312;29;20122;-62
2022/06/09 06:09:07;;;;;;;2.25;1.17;;;14.70;99.90;;;;;;4917476;29;20103;-62
2022/06/09 06:11:35;;;;;;;3.60;1.52;;;14.80;99.90;;;;;;4917113;29;20063;-81
2022/06/09 06:14:02;;;;;;;6.97;1.38;;;14.90;99.90;;;;;;4917265;29;20043;-82
2022/06/09 06:16:28;;;;;;;2.42;1.23;;;14.80;99.90;;;;;;4917614;29;20028;-81
2022/06/09 06:18:54;;;;;;;3.17;1.60;;;14.80;99.90;;;;;;4900735;29;20060;-82
2022/06/09 06:21:20;;;;;;;1.88;1.20;;;14.80;99.90;;;;;;4917757;29;20047;-82
2022/06/09 06:23:46;;;;;;;3.10;1.40;;;14.80;99.90;;;;;;4917652;29;20040;-83
2022/06/09 06:26:12;;;;;;;1.88;1.10;;;14.90;99.90;;;;;;4933932;29;20071;-81
2022/06/09 06:28:38;;;;;;;2.33;1.63;;;15.00;99.90;;;;;;4936275;29;20112;-80
2022/06/09 06:31:04;;;;;;;2.38;1.10;;;15.10;99.90;;;;;;4936053;29;20081;-79
2022/06/09 06:33:30;;;;;;;2.10;1.10;;;15.10;99.90;;;;;;4936237;29;20032;-80
2022/06/09 06:35:56;;;;;;;3.78;1.10;;;15.20;99.90;;;;;;4919116;29;20380;-81
2022/06/09 06:38:22;;;;;;;1.42;1.25;;;15.30;99.90;;;;;;4919071;29;20028;-80
2022/06/09 06:40:48;;;;;;;1.95;1.00;;;15.30;99.90;;;;;;4936186;29;20379;-81
2022/06/09 06:43:14;;;;;;;2.55;1.10;;;15.40;99.90;;;;;;4918981;29;20106;-81
2022/06/09 06:45:41;;;;;;;2.83;0.80;;;15.50;99.90;;;;;;4918898;29;20615;-80
2022/06/09 06:48:06;;;;;;;2.95;0.80;;;15.60;99.90;;;;;;4937404;29;20038;-82
2022/06/09 06:50:32;;;;;;;1.15;0.90;;;15.60;99.90;;;;;;4939622;29;20032;-82
2022/06/09 06:52:58;;;;;;;0.80;0.80;;;15.60;99.90;;;;;;4939850;29;20361;-64
2022/06/09 06:55:24;;;;;;;4.13;1.13;;;15.80;99.90;;;;;;4939316;29;20039;-82
2022/06/09 06:57:50;;;;;;;1.30;0.68;;;15.80;99.90;;;;;;4939460;29;20032;-82
2022/06/09 07:00:22;;;;;;;0.68;0.68;;;15.80;99.90;;;;;;4922384;29;20027;-81
2022/06/09 07:02:49;;;;;;;2.80;0.90;;;15.80;99.90;;;;;;4939508;29;20019;-81
2022/06/09 07:05:16;;;;;;;1.25;0.80;;;15.80;99.90;;;;;;4939042;29;20040;-81
2022/06/09 07:07:42;;;;;;;2.50;0.90;;;15.90;99.90;;;;;;4922695;29;20489;-81
2022/06/09 07:10:09;;;;;;;1.23;0.90;;;15.90;99.90;;;;;;4922138;29;20140;-81
2022/06/09 07:12:35;;;;;;;1.60;0.80;;;15.90;99.90;;;;;;4938881;29;20059;-81
2022/06/09 07:15:01;;;;;;;3.30;1.08;;;15.90;99.90;;;;;;4939101;29;20038;-81
2022/06/09 07:17:27;;;;;;;1.10;1.00;;;16.00;99.90;;;;;;4939210;29;20036;-81
2022/06/09 07:19:53;;;;;;;1.73;1.05;;;16.10;99.90;;;;;;4921914;29;20038;-82
2022/06/09 07:22:19;;;;;;;0.73;0.52;;;16.20;99.90;;;;;;4939004;29;20383;-80
2022/06/09 07:24:45;;;;;;;0.63;0.63;;;16.40;99.90;;;;;;4933175;29;20128;-81
2022/06/09 07:27:12;;;;;;;1.58;0.85;;;16.60;99.90;;;;;;4903680;29;20063;-90
2022/06/09 07:29:38;;;;;;;2.05;0.82;;;16.60;99.90;;;;;;4903444;29;20467;-81
2022/06/09 07:32:05;;;;;;;1.10;0.68;;;16.70;99.90;;;;;;4920295;29;20024;-81
2022/06/09 07:34:31;;;;;;;0.88;0.70;;;16.70;99.90;;;;;;4920302;29;20047;-82
2022/06/09 07:36:56;;;;;;;2.15;0.70;;;16.80;99.90;;;;;;4920252;29;20029;-88
2022/06/09 07:39:24;;;;;;;3.03;0.70;;;16.80;99.90;;;;;;4920404;29;20036;-82
2022/06/09 07:41:50;;;;;;;2.88;0.70;;;16.80;99.90;;;;;;4919939;29;20227;-86
2022/06/09 07:44:16;;;;;;;1.80;0.77;;;16.80;99.90;;;;;;4920246;29;20064;-84
2022/06/09 07:46:42;;;;;;;2.03;1.13;;;16.70;99.90;;;;;;4920123;29;20039;-81
2022/06/09 07:49:07;;;;;;;2.33;0.82;;;16.60;99.90;;;;;;4920135;29;20028;-81
2022/06/09 07:51:33;;;;;;;1.65;0.70;;;16.70;99.90;;;;;;4919477;29;20044;-81
2022/06/09 07:54:00;;;;;;;1.48;0.90;;;16.60;99.90;;;;;;4919329;29;20524;-81
2022/06/09 07:56:26;;;;;;;1.15;1.00;;;16.60;99.90;;;;;;4919323;29;20035;-80
2022/06/09 07:58:52;;;;;;;2.38;1.20;;;16.50;99.90;;;;;;4901868;29;20115;-80
2022/06/09 08:01:20;;;;;;;1.70;0.70;;;16.50;99.90;;;;;;4902770;29;20452;-80
2022/06/09 08:03:46;;;;;;;0.95;0.88;;;16.50;99.90;;;;;;4919311;29;20029;-80
2022/06/09 08:06:13;;;;;;;1.50;1.05;;;16.50;99.90;;;;;;4902559;29;20035;-83
2022/06/09 08:08:39;;;;;;;1.45;0.80;;;16.60;99.90;;;;;;4902328;29;20034;-82
2022/06/09 08:11:07;;;;;;;2.33;0.90;;;16.50;99.90;;;;;;4919142;29;20032;-82
2022/06/09 08:13:33;;;;;;;3.40;0.90;;;16.50;99.90;;;;;;4919477;29;20028;-82
2022/06/09 08:15:59;;;;;;;3.08;0.93;;;16.40;99.90;;;;;;4902224;29;20426;-82
2022/06/09 08:18:24;;;;;;;0.90;0.90;;;16.50;99.90;;;;;;4919195;29;20092;-82
2022/06/09 08:20:50;;;;;;;1.17;1.02;;;16.50;99.90;;;;;;4918810;29;20024;-82
2022/06/09 08:23:20;;;;;;;0.60;0.60;;;16.40;99.90;;;;;;4902467;29;20075;-82
2022/06/09 08:25:47;;;;;;;1.25;0.88;;;16.30;99.90;;;;;;4929722;29;20142;-82
2022/06/09 08:28:18;;;;;;;0.90;0.73;;;16.30;99.90;;;;;;4940065;29;20463;-82
2022/06/09 08:30:45;;;;;;;1.17;0.90;;;16.30;99.90;;;;;;4957268;29;20059;-82
2022/06/09 08:33:10;;;;;;;1.40;0.80;;;16.20;99.90;;;;;;4956921;29;20059;-82
2022/06/09 08:35:36;;;;;;;0.73;0.73;;;16.20;99.90;;;;;;4956763;29;20476;-82
2022/06/09 08:38:06;;;;;;;1.95;1.23;;;16.30;99.90;;;;;;4957193;29;20027;-82
2022/06/09 08:41:09;;;;;;;0.70;0.70;;;16.30;99.90;;;;;;4940227;29;20023;-82
2022/06/09 08:43:56;;;;;;;4.32;0.90;;;16.30;99.90;;;;;;4924116;29;20031;-82
2022/06/09 08:46:29;;;;;;;3.30;1.00;;;16.30;99.90;;;;;;4956990;29;20050;-82
2022/06/09 08:49:00;;;;;;;0.90;0.90;;;16.30;99.90;;;;;;4957262;29;20027;-82
2022/06/09 08:51:49;;;;;;;0.63;0.63;;;16.30;99.90;;;;;;4957094;29;20375;-82
2022/06/09 08:54:31;;;;;;;2.55;0.70;;;16.30;99.90;;;;;;4956887;29;20042;-82
2022/06/09 08:57:01;;;;;;;2.35;1.20;;;16.30;99.90;;;;;;4939937;29;20031;-82
2022/06/09 08:59:37;;;;;;;1.25;0.80;;;16.40;99.90;;;;;;4939716;29;20031;-81
2022/06/09 09:02:26;;;;;;;2.88;0.90;;;16.40;99.90;;;;;;4957181;29;20435;-82
2022/06/09 09:05:07;;;;;;;1.50;0.95;;;16.40;99.90;;;;;;4939975;29;20121;-82
2022/06/09 09:07:42;;;;;;;0.85;0.85;;;16.40;99.90;;;;;;4956664;29;20106;-82
2022/06/09 09:10:26;;;;;;;1.08;0.93;;;16.40;99.90;;;;;;4939098;29;20467;-82
2022/06/09 09:13:11;;;;;;;1.10;1.00;;;16.30;99.90;;;;;;4957267;29;20055;-82
2022/06/09 09:15:44;;;;;;;1.33;0.98;;;16.40;99.90;;;;;;4956260;29;20399;-82
2022/06/09 09:18:22;;;;;;;0.90;0.90;;;16.40;99.90;;;;;;4956524;29;20043;-82
2022/06/09 09:21:12;;;;;;;2.25;1.30;;;16.40;99.90;;;;;;4956368;29;20031;-81
2022/06/09 09:23:40;;;;;;;;;;;16.40;99.90;;;;;;4957117;29;20027;-81
2022/06/09 09:26:14;;;;;;;1.25;1.10;;;16.40;99.90;;;;;;4957051;29;19919;-83
2022/06/09 09:28:50;;;;;;;1.15;1.15;;;16.40;99.90;;;;;;4956384;29;20027;-82
2022/06/09 09:31:37;;;;;;;1.30;1.20;;;16.40;99.90;;;;;;4956375;29;20166;-81
2022/06/09 09:34:04;;;;;;;3.30;1.55;;;16.40;99.90;;;;;;4938950;29;20038;-81
2022/06/09 09:36:37;;;;;;;1.27;1.27;;;16.40;99.90;;;;;;4956522;29;20375;-81
2022/06/09 09:39:14;;;;;;;1.40;0.80;;;16.40;99.90;;;;;;4939243;29;20478;-82
2022/06/09 09:41:40;;;;;;;1.00;1.00;;;16.40;99.90;;;;;;4956407;29;20020;-82
2022/06/09 09:44:13;;;;;;;1.00;1.00;;;16.40;99.90;;;;;;4956384;29;20035;-82
2022/06/09 09:46:40;;;;;;;2.47;1.20;;;16.40;99.90;;;;;;4956567;29;20154;-82
2022/06/09 09:49:16;;;;;;;1.45;0.95;;;16.40;99.90;;;;;;4956070;29;20042;-82
2022/06/09 09:51:46;;;;;;;1.10;0.85;;;16.40;99.90;;;;;;4939125;29;20458;-81
2022/06/09 09:54:31;;;;;;;1.05;1.05;;;16.40;99.90;;;;;;4938925;29;20045;-82
2022/06/09 09:57:19;;;;;;;1.00;1.00;;;16.40;99.90;;;;;;4955912;29;20544;-82
2022/06/09 09:59:51;;;;;;;1.45;0.77;;;16.40;99.90;;;;;;4938783;29;20159;-82
2022/06/09 10:08:40;;;;;;;0.60;0.60;;;16.50;99.90;;;;;;4956131;29;20455;-82
2022/06/09 10:11:53;;;;;;;1.63;0.52;;;16.50;99.90;;;;;;4956108;29;20028;-82
2022/06/09 10:14:43;;;;;;;1.08;0.93;;;16.50;99.90;;;;;;4938746;29;20035;-83
2022/06/09 10:17:32;;;;;;;0.60;0.60;;;16.40;99.90;;;;;;4956424;29;20586;-83
2022/06/09 10:19:57;;;;;;;;;;;16.50;99.90;;;;;;4956590;29;20028;-82
2022/06/09 10:22:26;;;;;;;3.17;0.60;;;16.50;99.90;;;;;;4956745;28;19917;-83
2022/06/09 10:24:58;;;;;;;;;;;16.50;99.90;;;;;;4943171;29;20051;-83
2022/06/09 10:27:31;;;;;;;3.35;0.80;;;16.50;99.90;;;;;;4959776;29;19910;-83
2022/06/09 10:30:20;;;;;;;1.17;0.50;;;16.50;99.90;;;;;;4959890;29;20036;-82
2022/06/09 10:32:58;;;;;;;2.00;0.40;;;16.50;99.90;;;;;;4958343;29;20051;-83
2022/06/09 10:35:35;;;;;;;1.50;0.50;;;16.60;99.90;;;;;;4942334;29;20035;-82
2022/06/09 10:38:02;;;;;;;0.70;0.45;;;16.60;99.90;;;;;;4942426;29;20110;-83
2022/06/09 10:40:44;;;;;;;2.65;0.80;;;16.60;99.90;;;;;;4959594;29;20024;-82
2022/06/09 10:43:16;;;;;;;0.60;0.60;;;16.60;99.90;;;;;;4959455;29;20051;-83
2022/06/09 10:45:54;;;;;;;1.38;0.40;;;16.70;99.90;;;;;;4958865;29;20493;-82
2022/06/09 10:57:51;;;;;;;0.38;0.35;;;16.90;99.90;;;;;;4959055;29;20070;-82
2022/06/09 11:00:30;;;;;;;0.20;0.15;;;17.00;99.90;;;;;;4941604;29;20459;-82
2022/06/09 11:02:59;;;;;;;0.22;0.20;;;17.10;99.90;;;;;;4959013;29;20411;-82
2022/06/09 11:05:46;;;;;;;0.40;0.40;;;17.10;99.90;;;;;;4958863;29;20096;-82
2022/06/09 11:08:37;;;;;;;0.45;0.20;;;17.30;99.90;;;;;;4941508;29;20024;-82
2022/06/09 11:11:20;;;;;;;0.30;0.30;;;17.40;99.90;;;;;;4941586;29;20058;-82
2022/06/09 11:14:01;;;;;;;1.52;0.28;;;17.60;99.90;;;;;;4941674;29;20034;-82
2022/06/09 11:16:53;;;;;;;1.20;0.20;;;17.70;99.90;;;;;;4941464;29;20118;-82
2022/06/09 11:19:27;;;;;;;0.35;0.35;;;17.70;99.90;;;;;;4955286;29;20035;-82
2022/06/09 11:22:05;;;;;;;0.17;0.17;;;17.70;99.90;;;;;;4958859;29;20027;-82
2022/06/09 11:25:09;;;;;;;0.30;0.30;;;17.90;99.90;;;;;;4958661;29;20051;-82
2022/06/09 11:28:00;;;;;;;0.45;0.25;;;18.10;99.90;;;;;;4958389;29;20068;-81
2022/06/09 11:30:47;;;;;;;1.00;0.52;;;18.10;99.90;;;;;;4941373;29;20027;-82
2022/06/09 11:33:51;;;;;;;0.32;0.32;;;18.50;99.90;;;;;;4956713;28;20092;-82
2022/06/09 11:36:26;;;;;;;0.30;0.30;;;18.80;99.90;;;;;;4956940;29;20035;-82
2022/06/09 11:39:12;;;;;;;0.28;0.28;;;18.80;99.90;;;;;;4958268;29;20038;-82
2022/06/09 11:41:52;;;;;;;1.48;0.63;;;18.80;99.90;;;;;;4958344;29;20039;-83
2022/06/09 11:44:29;;;;;;;0.65;0.50;;;18.60;99.90;;;;;;4958182;29;20079;-82
2022/06/09 11:47:01;;;;;;;1.00;0.40;;;18.50;99.90;;;;;;4958384;29;20030;-83
2022/06/09 11:49:36;;;;;;;0.30;0.30;;;18.50;99.90;;;;;;4940693;29;20055;-83
2022/06/09 11:52:05;;;;;;;0.93;0.30;;;18.40;99.90;;;;;;4958342;29;20082;-84
2022/06/09 11:54:57;;;;;;;0.20;0.20;;;18.50;99.90;;;;;;4958045;29;20479;-83
2022/06/09 11:57:22;;;;;;;0.43;0.40;;;18.60;99.90;;;;;;4958263;29;20023;-83
2022/06/09 11:59:51;;;;;;;0.60;0.32;;;18.50;99.90;;;;;;4958116;29;20025;-83
2022/06/09 12:02:36;;;;;;;1.15;0.38;;;18.50;99.90;;;;;;4957584;29;20062;-82
2022/06/09 12:05:10;;;;;;;0.90;0.47;;;18.40;99.90;;;;;;4957980;29;20106;-83
2022/06/09 12:07:47;;;;;;;0.80;0.40;;;18.40;99.90;;;;;;4957732;29;20086;-83
2022/06/09 12:10:33;;;;;;;0.43;0.43;;;18.40;99.90;;;;;;4957660;29;20035;-82
2022/06/09 12:13:05;;;;;;;1.13;0.95;;;18.40;99.90;;;;;;4957666;29;20034;-83
2022/06/09 12:15:46;;;;;;;0.65;0.40;;;18.30;99.90;;;;;;4957462;29;20038;-83
2022/06/09 12:18:16;;;;;;;0.52;0.52;;;18.30;99.90;;;;;;4957628;29;20062;-82
2022/06/09 12:20:47;;;;;;;0.52;0.50;;;18.40;99.90;;;;;;4957447;29;20027;-83
2022/06/09 12:23:52;;;;;;;0.73;0.50;;;18.50;99.90;;;;;;4940224;29;20463;-83
2022/06/09 12:26:40;;;;;;;1.35;0.50;;;18.60;99.90;;;;;;4957378;29;20479;-82
2022/06/09 12:29:36;;;;;;;1.00;0.57;;;18.40;99.90;;;;;;4956901;29;20036;-82
2022/06/09 12:32:10;;;;;;;0.55;0.50;;;18.40;99.90;;;;;;4957033;29;20027;-82
2022/06/09 12:34:43;;;;;;;1.55;0.80;;;18.20;99.90;;;;;;4939922;29;20471;-82
2022/06/09 12:37:33;;;;;;;1.27;0.50;;;18.10;99.90;;;;;;4957231;29;20078;-82
2022/06/09 12:39:59;;;;;;;0.40;0.40;;;17.90;99.90;;;;;;4947599;29;20075;-83
2022/06/09 12:42:46;;;;;;;0.40;0.40;;;17.90;99.90;;;;;;4956678;29;20513;-83
2022/06/09 12:45:15;;;;;;;0.82;0.45;;;17.80;99.90;;;;;;4942623;28;20066;-82
2022/06/09 12:48:03;;;;;;;1.95;0.55;;;17.80;99.90;;;;;;4956456;29;20434;-82
2022/06/09 12:50:44;;;;;;;0.80;0.73;;;17.70;99.90;;;;;;4956746;29;20059;-83
2022/06/09 12:53:27;;;;;;;0.95;0.85;;;17.60;99.90;;;;;;4956750;29;20027;-82
2022/06/09 12:56:19;;;;;;;1.77;0.50;;;17.50;99.90;;;;;;4956553;29;20081;-82
2022/06/09 12:58:48;;;;;;;1.45;0.70;;;17.50;99.90;;;;;;4939466;29;20082;-82
2022/06/09 13:01:28;;;;;;;0.82;0.82;;;17.30;99.90;;;;;;4939887;29;20098;-82
2022/06/09 13:04:04;;;;;;;1.10;1.00;;;17.10;99.90;;;;;;4939277;29;20031;-82
2022/06/09 13:06:37;;;;;;;0.63;0.63;;;17.10;99.90;;;;;;4956602;29;20050;-84
2022/06/09 13:09:16;;;;;;;0.90;0.90;;;17.00;99.90;;;;;;4956569;29;20106;-82
2022/06/09 13:14:27;;;;;;;2.67;0.90;;;16.80;99.90;;;;;;4956260;29;20376;-81
2022/06/09 13:17:00;;;;;;;2.65;0.95;;;16.80;99.90;;;;;;4956211;29;20035;-82
2022/06/09 13:19:29;;;;;;;1.00;1.00;;;16.70;99.90;;;;;;4939111;29;20375;-83
2022/06/09 13:21:58;;;;;;;0.90;0.90;;;16.70;99.90;;;;;;4956056;29;20038;-83
2022/06/09 13:24:27;;;;;;;1.27;1.20;;;16.60;99.90;;;;;;4938954;29;20058;-85
2022/06/09 13:26:54;;;;;;;1.10;1.00;;;16.50;99.90;;;;;;4956334;29;20055;-85
2022/06/09 13:29:34;;;;;;;1.27;0.90;;;16.50;99.90;;;;;;4956422;29;20027;-85
2022/06/09 13:32:11;;;;;;;0.75;0.75;;;16.50;99.90;;;;;;4956868;29;20023;-84
2022/06/09 13:34:43;;;;;;;1.00;0.82;;;16.40;99.90;;;;;;4939255;29;20038;-84
2022/06/09 13:37:15;;;;;;;1.00;1.00;;;16.40;99.90;;;;;;4938898;29;20486;-84